createdAt,value
2023-03-26T00:01:47.260Z,79.84
2023-03-26T00:04:19.794Z,80.44
2023-03-26T00:06:50.496Z,80.84
2023-03-26T00:09:19.054Z,81.71
2023-03-26T00:11:46.982Z,83.24
2023-03-26T00:14:17.881Z,84.32
2023-03-26T00:16:47.712Z,85.48
2023-03-26T00:19:16.202Z,86.07
2023-03-26T00:21:44.091Z,87.14
2023-03-26T00:24:17.600Z,87.53
2023-03-26T00:26:48.704Z,87.15
2023-03-26T00:29:17.087Z,87.25
2023-03-26T00:31:46.365Z,87.62
2023-03-26T00:34:18.610Z,88.88
2023-03-26T00:36:47.227Z,89.03
2023-03-26T00:39:15.515Z,88.18
2023-03-26T00:41:44.340Z,88.92
2023-03-26T00:44:13.202Z,89.82
2023-03-26T00:46:41.356Z,88.24
2023-03-26T00:49:11.179Z,88.10
2023-03-26T00:51:39.600Z,85.81
2023-03-26T00:54:08.706Z,85.07
2023-03-26T00:56:37.184Z,83.74
2023-03-26T00:59:05.154Z,83.11
2023-03-26T01:01:33.243Z,82.53
2023-03-26T01:04:27.658Z,82.35
2023-03-26T01:07:05.100Z,82.71
2023-03-26T01:09:36.959Z,82.56
2023-03-26T01:12:09.198Z,82.59
2023-03-26T01:14:38.573Z,82.63
2023-03-26T01:17:08.045Z,82.95
2023-03-26T01:20:06.151Z,84.35
2023-03-26T01:22:36.844Z,84.28
2023-03-26T01:25:05.177Z,84.35
2023-03-26T01:27:42.525Z,84.73
2023-03-26T01:30:21.470Z,85.02
2023-03-26T01:33:34.136Z,84.68
2023-03-26T01:36:23.662Z,84.93
2023-03-26T01:39:00.600Z,84.58
2023-03-26T01:41:37.598Z,84.42
2023-03-26T01:44:22.691Z,84.70
2023-03-26T01:46:52.603Z,84.69
2023-03-26T01:49:20.722Z,84.88
2023-03-26T01:51:48.924Z,84.11
2023-03-26T01:54:21.553Z,83.76
2023-03-26T01:56:52.289Z,84.38
2023-03-26T01:59:34.976Z,83.73
2023-03-26T02:02:10.206Z,83.02
2023-03-26T02:04:53.613Z,83.43
2023-03-26T02:07:35.435Z,83.07
2023-03-26T02:10:10.667Z,84.08
2023-03-26T02:12:43.096Z,84.67
2023-03-26T02:15:12.724Z,85.09
2023-03-26T02:17:40.750Z,85.34
2023-03-26T02:20:11.407Z,86.29
2023-03-26T02:22:41.236Z,86.24
2023-03-26T02:25:13.655Z,86.33
2023-03-26T02:27:43.132Z,87.64
2023-03-26T02:30:25.926Z,87.94
2023-03-26T02:32:59.554Z,88.17
2023-03-26T02:35:34.422Z,87.90
2023-03-26T02:38:03.558Z,87.48
2023-03-26T02:40:31.558Z,87.55
2023-03-26T02:43:00.894Z,87.90
2023-03-26T02:45:31.280Z,87.54
2023-03-26T02:48:20.429Z,87.66
2023-03-26T02:51:09.204Z,87.63
2023-03-26T02:53:48.205Z,87.69
2023-03-26T02:56:48.485Z,88.33
2023-03-26T02:59:24.777Z,88.59
2023-03-26T03:02:13.574Z,88.36
2023-03-26T03:04:42.463Z,87.42
2023-03-26T03:07:14.529Z,87.57
2023-03-26T03:09:42.678Z,87.90
2023-03-26T03:12:30.965Z,88.48
2023-03-26T03:14:58.862Z,88.49
2023-03-26T03:17:26.995Z,87.81
2023-03-26T03:19:54.839Z,87.93
2023-03-26T03:22:23.024Z,88.06
2023-03-26T03:24:57.839Z,89.11
2023-03-26T03:27:26.373Z,89.16
2023-03-26T03:30:09.708Z,88.34
2023-03-26T03:32:47.064Z,88.58
2023-03-26T03:35:19.585Z,89.26
2023-03-26T03:37:51.249Z,90.08
2023-03-26T03:40:20.006Z,89.67
2023-03-26T03:42:48.118Z,89.65
2023-03-26T03:45:24.169Z,90.45
2023-03-26T03:48:12.344Z,89.89
2023-03-26T03:50:43.510Z,89.83
2023-03-26T03:53:37.371Z,90.30
2023-03-26T03:56:10.506Z,91.03
2023-03-26T03:59:09.181Z,90.71
2023-03-26T04:01:38.854Z,90.34
2023-03-26T04:04:14.262Z,89.65
2023-03-26T04:06:57.202Z,88.73
2023-03-26T04:09:27.387Z,88.80
2023-03-26T04:11:59.036Z,88.66
2023-03-26T04:14:39.428Z,89.54
2023-03-26T04:17:15.555Z,90.45
2023-03-26T04:19:45.405Z,91.31
2023-03-26T04:22:15.212Z,90.83
2023-03-26T04:24:54.719Z,90.89
2023-03-26T04:27:44.174Z,90.93
2023-03-26T04:30:21.076Z,90.34
2023-03-26T04:32:58.703Z,89.78
2023-03-26T04:35:30.562Z,89.67
2023-03-26T04:37:58.756Z,89.66
2023-03-26T04:40:31.505Z,89.43
2023-03-26T04:43:02.493Z,90.02
2023-03-26T04:46:03.041Z,89.83
2023-03-26T04:48:33.596Z,89.28
2023-03-26T04:51:01.818Z,88.12
2023-03-26T04:53:30.049Z,88.91
2023-03-26T04:57:00.232Z,89.27
2023-03-26T04:59:46.027Z,89.00
2023-03-26T05:02:15.765Z,88.79
2023-03-26T05:04:50.152Z,89.16
2023-03-26T05:07:25.308Z,89.26
2023-03-26T05:09:57.745Z,90.00
2023-03-26T05:13:01.048Z,88.87
2023-03-26T05:15:34.309Z,89.07
2023-03-26T05:18:16.794Z,88.96
2023-03-26T05:20:50.048Z,88.48
2023-03-26T05:23:18.196Z,89.30
2023-03-26T05:25:52.126Z,89.95
2023-03-26T05:28:24.566Z,90.09
2023-03-26T05:31:01.538Z,88.92
2023-03-26T05:33:34.086Z,84.18
2023-03-26T05:36:15.610Z,81.92
2023-03-26T05:38:49.764Z,79.30
2023-03-26T05:41:37.764Z,79.67
2023-03-26T05:44:06.179Z,78.69
2023-03-26T05:46:34.191Z,78.15
2023-03-26T05:49:02.305Z,79.70
2023-03-26T05:51:34.532Z,80.99
2023-03-26T05:54:22.746Z,81.40
2023-03-26T05:57:09.279Z,80.53
2023-03-26T05:59:58.768Z,80.50
2023-03-26T06:02:48.201Z,78.73
2023-03-26T06:05:37.576Z,77.94
2023-03-26T06:08:26.329Z,78.06
2023-03-26T06:11:02.417Z,78.53
2023-03-26T06:13:34.599Z,78.48
2023-03-26T06:16:06.442Z,77.18
2023-03-26T06:18:37.885Z,75.71
2023-03-26T06:21:24.011Z,76.63
2023-03-26T06:23:57.100Z,74.84
2023-03-26T06:26:48.290Z,73.74
2023-03-26T06:29:24.785Z,72.25
2023-03-26T06:32:19.607Z,72.27
2023-03-26T06:35:02.694Z,73.02
2023-03-26T06:37:30.998Z,71.99
2023-03-26T06:40:01.950Z,70.14
2023-03-26T06:43:08.605Z,68.69
2023-03-26T06:45:55.161Z,66.53
2023-03-26T06:48:55.201Z,64.80
2023-03-26T06:51:41.749Z,64.36
2023-03-26T06:54:09.904Z,64.04
2023-03-26T06:56:55.359Z,63.77
2023-03-26T06:59:43.362Z,62.66
2023-03-26T07:02:30.160Z,61.98
2023-03-26T07:05:27.460Z,60.32
2023-03-26T07:08:13.799Z,60.92
2023-03-26T07:11:00.374Z,60.60
2023-03-26T07:13:52.124Z,60.61
2023-03-26T07:16:38.810Z,60.48
2023-03-26T07:19:30.671Z,60.40
2023-03-26T07:21:58.979Z,60.15
2023-03-26T07:24:46.041Z,59.49
2023-03-26T07:27:54.819Z,59.13
2023-03-26T07:31:00.531Z,59.79
2023-03-26T07:33:44.398Z,58.85
2023-03-26T07:36:48.498Z,58.24
2023-03-26T07:40:10.983Z,57.72
2023-03-26T07:43:35.679Z,56.37
2023-03-26T07:46:12.560Z,56.41
2023-03-26T07:49:13.524Z,55.94
2023-03-26T07:52:01.638Z,56.48
2023-03-26T07:54:49.434Z,56.48
2023-03-26T07:57:57.357Z,56.31
2023-03-26T08:00:59.949Z,56.12
2023-03-26T08:03:31.974Z,56.00
2023-03-26T08:06:34.330Z,56.35
2023-03-26T08:09:27.211Z,56.78
2023-03-26T08:12:30.385Z,57.04
2023-03-26T08:15:44.224Z,56.97
2023-03-26T08:18:27.496Z,55.72
2023-03-26T08:21:08.288Z,55.36
2023-03-26T08:23:51.342Z,56.07
2023-03-26T08:26:47.892Z,56.34
2023-03-26T08:29:23.184Z,56.57
2023-03-26T08:31:51.481Z,56.13
2023-03-26T08:34:19.674Z,55.41
2023-03-26T08:36:47.815Z,55.45
2023-03-26T08:39:15.800Z,54.89
2023-03-26T08:41:56.823Z,56.29
2023-03-26T08:44:55.549Z,56.47
2023-03-26T08:47:32.724Z,57.65
2023-03-26T08:50:29.187Z,57.61
2023-03-26T08:53:06.005Z,58.27
2023-03-26T08:56:12.230Z,56.96
2023-03-26T08:59:48.482Z,57.17
2023-03-26T09:02:22.416Z,56.74
2023-03-26T09:05:14.867Z,57.77
2023-03-26T09:08:03.792Z,57.78
2023-03-26T09:10:37.960Z,57.31
2023-03-26T09:13:24.281Z,55.32
2023-03-26T09:16:27.333Z,55.34
2023-03-26T09:19:17.032Z,54.93
2023-03-26T09:21:57.940Z,54.58
2023-03-26T09:24:38.023Z,53.08
2023-03-26T09:27:26.814Z,52.79
2023-03-26T09:30:34.420Z,53.05
2023-03-26T09:33:11.965Z,54.86
2023-03-26T09:35:57.921Z,54.61
2023-03-26T09:39:00.607Z,54.57
2023-03-26T09:41:55.252Z,54.82
2023-03-26T09:44:38.349Z,54.60
2023-03-26T09:47:38.309Z,54.48
2023-03-26T09:50:29.917Z,54.59
2023-03-26T09:53:09.577Z,54.98
2023-03-26T09:56:39.868Z,54.63
2023-03-26T09:59:29.621Z,54.46
2023-03-26T10:02:45.558Z,54.50
2023-03-26T10:05:44.224Z,55.29
2023-03-26T10:08:39.634Z,53.98
2023-03-26T10:11:16.756Z,53.44
2023-03-26T10:14:25.941Z,54.27
2023-03-26T10:17:11.636Z,53.03
2023-03-26T10:19:45.798Z,53.46
2023-03-26T10:22:16.352Z,53.69
2023-03-26T10:25:21.628Z,53.98
2023-03-26T10:27:55.710Z,53.44
2023-03-26T10:30:32.862Z,52.96
2023-03-26T10:33:24.991Z,54.42
2023-03-26T10:36:32.761Z,53.73
2023-03-26T10:39:36.284Z,54.30
2023-03-26T10:42:21.757Z,54.44
2023-03-26T10:45:14.982Z,53.28
2023-03-26T10:48:25.964Z,53.74
2023-03-26T10:51:03.010Z,53.72
2023-03-26T10:53:39.827Z,53.54
2023-03-26T10:56:19.137Z,53.94
2023-03-26T10:58:49.316Z,53.09
2023-03-26T11:01:42.231Z,51.15
2023-03-26T11:04:50.769Z,50.59
2023-03-26T11:07:27.234Z,50.28
2023-03-26T11:10:07.271Z,48.89
2023-03-26T11:12:47.591Z,47.88
2023-03-26T11:15:42.161Z,48.67
2023-03-26T11:18:23.208Z,48.50
2023-03-26T11:21:18.634Z,48.55
2023-03-26T11:24:26.048Z,46.90
2023-03-26T11:27:15.385Z,48.78
2023-03-26T11:30:01.401Z,47.69
2023-03-26T11:32:43.122Z,47.27
2023-03-26T11:35:55.489Z,47.22
2023-03-26T11:38:42.294Z,47.80
2023-03-26T11:41:16.930Z,48.45
2023-03-26T11:44:14.162Z,47.88
2023-03-26T11:46:46.106Z,45.56
2023-03-26T11:49:18.524Z,46.26
2023-03-26T11:51:49.009Z,45.92
2023-03-26T11:54:18.089Z,46.32
2023-03-26T11:57:05.019Z,46.54
2023-03-26T11:59:56.462Z,47.55
2023-03-26T12:02:29.622Z,47.27
2023-03-26T12:05:21.953Z,46.24
2023-03-26T12:07:56.916Z,46.31
2023-03-26T12:10:38.438Z,45.56
2023-03-26T12:13:30.160Z,46.75
2023-03-26T12:16:11.753Z,46.18
2023-03-26T12:18:41.859Z,48.73
2023-03-26T12:21:18.310Z,47.58
2023-03-26T12:23:58.393Z,46.49
2023-03-26T12:26:41.629Z,46.59
2023-03-26T12:29:14.704Z,47.24
2023-03-26T12:32:12.411Z,48.23
2023-03-26T12:34:40.812Z,47.35
2023-03-26T12:37:47.381Z,47.13
2023-03-26T12:40:36.923Z,45.62
2023-03-26T12:44:54.826Z,46.66
2023-03-26T12:47:58.656Z,46.67
2023-03-26T12:49:18.932Z,46.37
2023-03-26T12:52:11.026Z,47.08
2023-03-26T12:55:01.189Z,45.68
2023-03-26T12:57:38.952Z,47.43
2023-03-26T13:00:16.644Z,47.52
2023-03-26T13:03:00.372Z,47.95
2023-03-26T13:05:47.841Z,47.97
2023-03-26T13:08:15.992Z,47.59
2023-03-26T13:11:14.057Z,47.31
2023-03-26T13:14:09.506Z,48.85
2023-03-26T13:17:03.974Z,49.54
2023-03-26T13:20:07.357Z,49.49
2023-03-26T13:23:15.809Z,48.87
2023-03-26T13:25:58.874Z,49.12
2023-03-26T13:28:41.448Z,49.30
2023-03-26T13:31:23.624Z,48.65
2023-03-26T13:34:12.895Z,49.24
2023-03-26T13:37:14.002Z,49.85
2023-03-26T13:40:13.940Z,49.21
2023-03-26T13:43:14.293Z,50.30
2023-03-26T13:45:47.025Z,49.67
2023-03-26T13:48:24.550Z,49.59
2023-03-26T13:51:07.154Z,49.44
2023-03-26T13:53:50.053Z,49.61
2023-03-26T13:56:23.958Z,50.13
2023-03-26T13:58:59.820Z,50.44
2023-03-26T14:01:35.353Z,50.54
2023-03-26T14:04:25.008Z,49.76
2023-03-26T14:07:06.612Z,49.43
2023-03-26T14:10:10.014Z,50.52
2023-03-26T14:15:34.911Z,51.50
2023-03-26T14:18:32.558Z,52.42
2023-03-26T14:21:21.371Z,52.81
2023-03-26T14:24:02.698Z,52.94
2023-03-26T14:27:06.941Z,53.27
2023-03-26T14:29:34.934Z,53.29
2023-03-26T14:32:14.988Z,55.65
2023-03-26T14:35:05.076Z,58.62
2023-03-26T14:38:08.704Z,60.88
2023-03-26T14:40:56.801Z,61.86
2023-03-26T14:43:31.028Z,63.70
2023-03-26T14:46:07.813Z,67.14
2023-03-26T14:48:41.823Z,67.33
2023-03-26T14:51:34.596Z,69.14
2023-03-26T14:54:17.650Z,73.34
2023-03-26T14:57:18.552Z,73.29
2023-03-26T15:00:17.126Z,78.75
2023-03-26T15:02:47.054Z,75.48
2023-03-26T15:05:33.978Z,77.02
2023-03-26T15:08:37.214Z,77.33
2023-03-26T15:11:26.115Z,82.26
2023-03-26T15:14:00.656Z,82.10
2023-03-26T15:16:50.543Z,79.00
2023-03-26T15:20:07.375Z,87.19
2023-03-26T15:23:06.327Z,84.93
2023-03-26T15:25:53.142Z,87.01
2023-03-26T15:28:52.656Z,84.69
2023-03-26T15:31:41.143Z,87.74
2023-03-26T15:34:30.558Z,89.15
2023-03-26T15:37:23.754Z,91.10
2023-03-26T15:40:16.749Z,88.82
2023-03-26T15:43:02.916Z,90.22
2023-03-26T15:46:12.247Z,93.11
2023-03-26T15:48:52.422Z,97.37
2023-03-26T15:51:30.199Z,98.08
2023-03-26T15:53:57.950Z,98.13
2023-03-26T15:57:09.033Z,100.00
2023-03-26T15:59:43.451Z,100.00
2023-03-26T16:02:26.867Z,100.00
2023-03-26T16:05:03.370Z,100.00
2023-03-26T16:08:03.436Z,100.00
2023-03-26T16:10:57.816Z,100.00
2023-03-26T16:13:35.227Z,97.83
2023-03-26T16:16:03.077Z,100.00
2023-03-26T16:18:41.200Z,100.00
2023-03-26T16:21:32.396Z,100.00
2023-03-26T16:24:04.130Z,100.00
2023-03-26T16:26:32.014Z,100.00
2023-03-26T16:29:22.427Z,100.00
2023-03-26T16:32:12.489Z,100.00
2023-03-26T16:34:50.694Z,100.00
2023-03-26T16:37:41.174Z,100.00
2023-03-26T16:40:18.529Z,100.00
2023-03-26T16:43:17.605Z,100.00
2023-03-26T16:46:03.734Z,100.00
2023-03-26T16:48:46.266Z,100.00
2023-03-26T16:51:26.498Z,100.00
2023-03-26T16:54:01.013Z,100.00
2023-03-26T16:56:53.216Z,100.00
2023-03-26T16:59:30.148Z,100.00
2023-03-26T17:02:08.617Z,100.00
2023-03-26T17:04:37.854Z,100.00
2023-03-26T17:07:33.282Z,100.00
2023-03-26T17:10:16.184Z,100.00
2023-03-26T17:12:53.070Z,100.00
2023-03-26T17:15:32.733Z,100.00
2023-03-26T17:18:28.208Z,100.00
2023-03-26T17:21:15.457Z,100.00
2023-03-26T17:24:15.049Z,100.00
2023-03-26T17:27:07.822Z,100.00
2023-03-26T17:30:10.167Z,100.00
2023-03-26T17:33:07.533Z,100.00
2023-03-26T17:35:43.051Z,100.00
2023-03-26T17:38:28.519Z,100.00
2023-03-26T17:40:59.677Z,100.00
2023-03-26T17:43:38.072Z,100.00
2023-03-26T17:46:46.528Z,100.00
2023-03-26T17:50:49.904Z,100.00
2023-03-26T17:53:25.457Z,100.00
2023-03-26T17:55:55.372Z,100.00
2023-03-26T17:58:27.346Z,100.00
2023-03-26T18:01:03.191Z,100.00
2023-03-26T18:03:36.488Z,100.00
2023-03-26T18:06:09.876Z,100.00
2023-03-26T18:09:22.626Z,100.00
2023-03-26T18:12:28.472Z,100.00
2023-03-26T18:15:47.256Z,100.00
2023-03-26T18:18:21.046Z,100.00
2023-03-26T18:20:51.786Z,100.00
2023-03-26T18:23:29.680Z,100.00
2023-03-26T18:26:08.929Z,100.00
2023-03-26T18:28:44.663Z,100.00
2023-03-26T18:31:24.851Z,100.00
2023-03-26T18:33:59.402Z,100.00
2023-03-26T18:36:28.181Z,100.00
2023-03-26T18:39:05.003Z,100.00
2023-03-26T18:41:42.051Z,100.00
2023-03-26T18:44:16.173Z,100.00
2023-03-26T18:46:45.951Z,100.00
2023-03-26T18:49:17.376Z,100.00
2023-03-26T18:51:56.699Z,100.00
2023-03-26T18:54:29.548Z,100.00
2023-03-26T18:56:59.529Z,100.00
2023-03-26T18:59:32.521Z,100.00
2023-03-26T19:02:06.930Z,100.00
2023-03-26T19:04:37.011Z,100.00
2023-03-26T19:07:10.662Z,100.00
2023-03-26T19:09:40.764Z,100.00
2023-03-26T19:12:25.391Z,100.00
2023-03-26T19:14:57.879Z,100.00
2023-03-26T19:17:31.759Z,100.00
2023-03-26T19:19:59.845Z,100.00
2023-03-26T19:22:29.681Z,100.00
2023-03-26T19:25:01.458Z,100.00
2023-03-26T19:27:30.310Z,100.00
2023-03-26T19:29:58.278Z,100.00
2023-03-26T19:32:32.557Z,100.00
2023-03-26T19:35:04.160Z,100.00
2023-03-26T19:37:32.710Z,100.00
2023-03-26T19:40:31.286Z,100.00
2023-03-26T19:42:59.847Z,100.00
2023-03-26T19:45:28.532Z,100.00
2023-03-26T19:48:07.483Z,100.00
2023-03-26T19:50:46.099Z,100.00
2023-03-26T19:53:30.966Z,100.00
2023-03-26T19:56:14.757Z,100.00
2023-03-26T19:58:43.667Z,100.00
2023-03-26T20:01:24.218Z,100.00
2023-03-26T20:03:59.022Z,100.00
2023-03-26T20:06:42.581Z,100.00
2023-03-26T20:09:13.458Z,100.00
2023-03-26T20:11:41.654Z,100.00
2023-03-26T20:14:15.997Z,100.00
2023-03-26T20:16:45.218Z,100.00
2023-03-26T20:19:15.013Z,100.00
2023-03-26T20:21:45.031Z,100.00
2023-03-26T20:24:16.072Z,100.00
2023-03-26T20:26:45.346Z,100.00
2023-03-26T20:29:14.108Z,100.00
2023-03-26T20:31:42.633Z,100.00
2023-03-26T20:34:18.789Z,100.00
2023-03-26T20:36:47.446Z,100.00
2023-03-26T20:39:15.676Z,100.00
2023-03-26T20:41:48.639Z,100.00
2023-03-26T20:44:49.103Z,100.00
2023-03-26T20:47:19.601Z,100.00
2023-03-26T20:49:48.109Z,100.00
2023-03-26T20:52:15.918Z,100.00
2023-03-26T20:54:43.740Z,100.00
2023-03-26T20:57:14.451Z,100.00
2023-03-26T20:59:42.448Z,100.00
2023-03-26T21:02:13.712Z,100.00
2023-03-26T21:04:41.887Z,100.00
2023-03-26T21:07:17.850Z,100.00
2023-03-26T21:09:49.823Z,100.00
2023-03-26T21:12:35.264Z,100.00
2023-03-26T21:15:10.342Z,100.00
2023-03-26T21:17:46.145Z,100.00
2023-03-26T21:20:16.902Z,100.00
2023-03-26T21:23:12.268Z,100.00
2023-03-26T21:26:01.468Z,100.00
2023-03-26T21:28:41.815Z,100.00
2023-03-26T21:31:20.057Z,100.00
2023-03-26T21:33:49.638Z,100.00
2023-03-26T21:36:20.039Z,100.00
2023-03-26T21:38:48.344Z,100.00
2023-03-26T21:41:41.719Z,100.00
2023-03-26T21:44:10.284Z,100.00
2023-03-26T21:46:42.042Z,100.00
2023-03-26T21:49:11.110Z,100.00
2023-03-26T21:51:39.153Z,100.00
2023-03-26T21:54:33.609Z,100.00
2023-03-26T21:57:17.765Z,100.00
2023-03-26T21:59:57.436Z,100.00
2023-03-26T22:02:40.104Z,100.00
2023-03-26T22:05:16.447Z,100.00
2023-03-26T22:07:56.260Z,100.00
2023-03-26T22:10:24.319Z,100.00
2023-03-26T22:12:52.208Z,100.00
2023-03-26T22:15:20.411Z,100.00
2023-03-26T22:17:55.996Z,100.00
2023-03-26T22:20:25.344Z,100.00
2023-03-26T22:22:55.435Z,100.00
2023-03-26T22:25:24.155Z,100.00
2023-03-26T22:27:52.853Z,100.00
2023-03-26T22:30:20.970Z,100.00
2023-03-26T22:32:50.348Z,100.00
2023-03-26T22:35:18.512Z,100.00
2023-03-26T22:37:47.540Z,100.00
2023-03-26T22:40:15.424Z,100.00
2023-03-26T22:42:43.330Z,100.00
2023-03-26T22:45:12.005Z,100.00
2023-03-26T22:47:40.310Z,100.00
2023-03-26T22:50:12.265Z,100.00
2023-03-26T22:52:43.698Z,100.00
2023-03-26T22:55:12.229Z,100.00
2023-03-26T22:57:41.509Z,100.00
2023-03-26T23:00:19.641Z,100.00
2023-03-26T23:02:47.631Z,100.00
2023-03-26T23:05:18.868Z,100.00
2023-03-26T23:07:48.957Z,100.00
2023-03-26T23:10:16.967Z,100.00
2023-03-26T23:12:44.724Z,100.00
2023-03-26T23:15:12.651Z,100.00
2023-03-26T23:17:40.868Z,100.00
2023-03-26T23:20:15.405Z,100.00
2023-03-26T23:22:44.021Z,100.00
2023-03-26T23:25:12.485Z,100.00
2023-03-26T23:27:41.556Z,100.00
2023-03-26T23:30:11.019Z,100.00
2023-03-26T23:32:39.071Z,100.00
2023-03-26T23:35:07.480Z,100.00
2023-03-26T23:37:38.996Z,100.00
2023-03-26T23:40:09.625Z,100.00
2023-03-26T23:42:38.178Z,100.00
2023-03-26T23:45:06.960Z,100.00
2023-03-26T23:47:35.124Z,100.00
2023-03-26T23:50:04.411Z,100.00
2023-03-26T23:52:32.344Z,100.00
2023-03-26T23:55:00.221Z,100.00
2023-03-26T23:57:28.300Z,100.00
2023-03-26T23:59:56.455Z,100.00
